Time;durP1;ratioP1;P1;durP2;ratioP2;P2;SDS_P1;SDS_P2;PMS_P1;PMS_P2;Temp;Humidity;BMP_temperature;BMP_pressure;BME280_temperature;BME280_humidity;BME280_pressure;Samples;Min_cycle;Max_cycle;Signal;HPM_P1;HPM_P2
2022/09/02 00:01:26;;;;;;;0.82;0.20;;;17.50;64.30;;;;;;6115301;23;20015;-79
2022/09/02 00:04:04;;;;;;;1.23;0.30;;;17.50;64.50;;;;;;6067134;23;20025;-80
2022/09/02 00:06:31;;;;;;;3.30;0.28;;;17.50;64.50;;;;;;6042668;23;20011;-78
2022/09/02 00:08:58;;;;;;;1.58;0.20;;;17.50;64.50;;;;;;6019249;23;20018;-78
2022/09/02 00:11:27;;;;;;;0.60;0.20;;;17.40;64.50;;;;;;6113296;23;20013;-77
2022/09/02 00:13:54;;;;;;;2.63;0.30;;;17.40;64.60;;;;;;6016712;23;20014;-79
2022/09/02 00:16:24;;;;;;;1.33;0.20;;;17.40;64.70;;;;;;6063899;23;20019;-79
2022/09/02 00:18:55;;;;;;;3.38;0.20;;;17.30;64.80;;;;;;6039511;23;20011;-79
2022/09/02 00:21:24;;;;;;;0.73;0.20;;;17.30;65.00;;;;;;6039938;23;20430;-78
2022/09/02 00:23:52;;;;;;;0.80;0.30;;;17.20;65.00;;;;;;6017308;23;20014;-79
2022/09/02 00:26:18;;;;;;;0.77;0.22;;;17.20;65.20;;;;;;6041307;23;20010;-79
2022/09/02 00:28:45;;;;;;;2.70;0.20;;;17.20;65.30;;;;;;6041214;23;20010;-79
2022/09/02 00:31:21;;;;;;;0.52;0.30;;;17.10;65.30;;;;;;6018269;23;20011;-79
2022/09/02 00:33:51;;;;;;;1.42;0.57;;;17.10;65.50;;;;;;6041509;23;20006;-79
2022/09/02 00:36:20;;;;;;;3.10;0.70;;;17.00;65.50;;;;;;6065094;23;20466;-79
2022/09/02 00:38:47;;;;;;;1.10;0.30;;;17.00;65.70;;;;;;6039617;23;20431;-80
2022/09/02 00:41:14;;;;;;;1.08;0.40;;;17.00;65.60;;;;;;6064396;23;20609;-80
2022/09/02 00:43:51;;;;;;;2.63;0.30;;;17.00;65.80;;;;;;6067050;23;20078;-81
2022/09/02 00:46:21;;;;;;;1.25;0.30;;;16.90;65.80;;;;;;6016791;23;20014;-79
2022/09/02 00:49:09;;;;;;;0.70;0.20;;;16.90;65.90;;;;;;6015142;23;20014;-79
2022/09/02 00:51:43;;;;;;;0.80;0.20;;;16.90;65.90;;;;;;6017568;23;20007;-79
2022/09/02 00:54:11;;;;;;;0.60;0.20;;;16.90;66.20;;;;;;6040469;23;20477;-79
2022/09/02 00:56:42;;;;;;;2.67;0.30;;;16.80;66.10;;;;;;6040149;23;20014;-79
2022/09/02 00:59:14;;;;;;;0.77;0.20;;;16.80;66.20;;;;;;6064008;23;20010;-80
2022/09/02 01:01:40;;;;;;;1.20;0.20;;;16.80;66.30;;;;;;6075703;23;20350;-79
2022/09/02 01:04:10;;;;;;;1.58;0.30;;;16.80;66.50;;;;;;6040442;23;20351;-78
2022/09/02 01:06:38;;;;;;;0.75;0.20;;;16.80;66.40;;;;;;6039227;23;20015;-79
2022/09/02 01:09:10;;;;;;;1.27;0.43;;;16.80;66.50;;;;;;6039435;23;20002;-77
2022/09/02 01:11:43;;;;;;;2.47;0.30;;;16.70;66.50;;;;;;6074724;23;20014;-79
2022/09/02 01:14:12;;;;;;;1.65;0.20;;;16.70;66.50;;;;;;6039105;23;20022;-79
2022/09/02 01:16:48;;;;;;;0.80;0.20;;;16.70;67.20;;;;;;6082118;23;20018;-79
2022/09/02 01:19:28;;;;;;;1.58;0.20;;;16.70;66.60;;;;;;6088055;23;20369;-79
2022/09/02 01:21:56;;;;;;;2.20;0.30;;;16.60;66.80;;;;;;6063379;23;20003;-80
2022/09/02 01:24:26;;;;;;;1.58;0.25;;;16.60;66.80;;;;;;6110728;23;20011;-81
2022/09/02 01:26:54;;;;;;;2.90;0.30;;;16.70;66.80;;;;;;6062310;23;20010;-79
2022/09/02 01:29:22;;;;;;;1.85;0.30;;;16.70;66.80;;;;;;6015599;23;20011;-80
2022/09/02 01:31:50;;;;;;;0.85;0.20;;;16.70;66.80;;;;;;6039678;23;20027;-79
2022/09/02 01:34:16;;;;;;;0.38;0.20;;;16.60;66.70;;;;;;6015454;23;20011;-79
2022/09/02 01:36:43;;;;;;;0.57;0.30;;;16.70;66.80;;;;;;6086885;23;20007;-80
2022/09/02 01:39:11;;;;;;;2.10;0.20;;;16.70;66.80;;;;;;6039470;23;20010;-79
2022/09/02 01:41:37;;;;;;;0.85;0.20;;;16.70;66.80;;;;;;6038848;23;20011;-79
2022/09/02 01:44:07;;;;;;;1.23;0.22;;;16.70;66.70;;;;;;6039158;23;20029;-79
2022/09/02 01:46:35;;;;;;;1.48;0.30;;;16.70;66.70;;;;;;6015956;23;20090;-80
2022/09/02 01:49:03;;;;;;;3.20;0.28;;;16.70;66.60;;;;;;6016675;23;20007;-79
2022/09/02 01:51:30;;;;;;;0.85;0.20;;;16.70;66.60;;;;;;6063567;23;20011;-79
2022/09/02 01:53:57;;;;;;;0.25;0.20;;;16.70;66.60;;;;;;6039626;23;20007;-77
2022/09/02 01:56:24;;;;;;;0.68;0.28;;;16.70;66.60;;;;;;6039486;23;20014;-80
2022/09/02 01:58:52;;;;;;;0.50;0.20;;;16.70;66.60;;;;;;6087209;23;20007;-78
2022/09/02 02:01:18;;;;;;;1.65;0.20;;;16.70;66.50;;;;;;6064371;23;20455;-79
2022/09/02 02:03:46;;;;;;;0.90;0.20;;;16.70;66.50;;;;;;6063431;23;20018;-79
2022/09/02 02:06:16;;;;;;;0.93;0.20;;;16.70;66.50;;;;;;6110466;23;20010;-80
2022/09/02 02:08:44;;;;;;;1.45;0.30;;;16.70;66.60;;;;;;6039940;23;20034;-80
2022/09/02 02:11:11;;;;;;;2.58;0.25;;;16.70;66.60;;;;;;6063499;23;20007;-80
2022/09/02 02:13:37;;;;;;;1.85;0.50;;;16.70;66.60;;;;;;6065602;23;20022;-79
2022/09/02 02:16:04;;;;;;;0.50;0.20;;;16.70;66.50;;;;;;6088500;23;20358;-79
2022/09/02 02:18:31;;;;;;;0.45;0.20;;;16.80;66.50;;;;;;6040108;23;20006;-78
2022/09/02 02:20:58;;;;;;;1.20;0.20;;;16.70;66.40;;;;;;6088339;23;20018;-79
2022/09/02 02:23:25;;;;;;;0.73;0.20;;;16.80;66.50;;;;;;6016037;23;20347;-79
2022/09/02 02:25:51;;;;;;;1.55;0.20;;;16.70;66.50;;;;;;6062440;23;20014;-79
2022/09/02 02:28:18;;;;;;;1.38;0.20;;;16.70;66.50;;;;;;6016397;23;20018;-79
2022/09/02 02:30:45;;;;;;;0.30;0.20;;;16.70;66.50;;;;;;6065282;23;20010;-80
2022/09/02 02:33:12;;;;;;;1.50;0.30;;;16.70;66.60;;;;;;6064929;23;20010;-79
2022/09/02 02:35:39;;;;;;;0.80;0.20;;;16.70;66.70;;;;;;6040001;23;20037;-79
2022/09/02 02:38:06;;;;;;;1.20;0.30;;;16.70;66.70;;;;;;6040335;23;20014;-80
2022/09/02 02:40:32;;;;;;;2.55;0.30;;;16.70;66.80;;;;;;6090321;23;20451;-79
2022/09/02 02:42:59;;;;;;;1.02;0.20;;;16.70;66.70;;;;;;6042724;23;20003;-80
2022/09/02 02:45:26;;;;;;;0.80;0.10;;;16.70;66.60;;;;;;6066202;23;20030;-80
2022/09/02 02:47:53;;;;;;;0.60;0.22;;;16.70;66.70;;;;;;6017380;23;20015;-80
2022/09/02 02:50:25;;;;;;;0.43;0.28;;;16.70;66.80;;;;;;6065064;23;20034;-79
2022/09/02 02:52:53;;;;;;;0.57;0.20;;;16.70;66.80;;;;;;6052430;23;20014;-79
2022/09/02 02:55:21;;;;;;;0.90;0.28;;;16.70;66.80;;;;;;6089701;23;20018;-79
2022/09/02 02:57:51;;;;;;;1.77;0.20;;;16.70;66.80;;;;;;6018684;23;20419;-79
2022/09/02 03:00:21;;;;;;;0.63;0.20;;;16.70;66.90;;;;;;6065429;23;20355;-80
2022/09/02 03:02:49;;;;;;;0.68;0.20;;;16.70;66.90;;;;;;6051743;23;20454;-79
2022/09/02 03:05:19;;;;;;;1.67;0.20;;;16.70;66.90;;;;;;6040739;23;20023;-79
2022/09/02 03:07:48;;;;;;;0.50;0.20;;;16.70;66.90;;;;;;6018217;23;20030;-80
2022/09/02 03:10:17;;;;;;;0.73;0.20;;;16.70;67.00;;;;;;6112512;23;20010;-79
2022/09/02 03:12:46;;;;;;;1.15;0.17;;;16.70;67.00;;;;;;6039748;23;20447;-80
2022/09/02 03:15:16;;;;;;;1.15;0.40;;;16.60;66.90;;;;;;6065226;23;20014;-79
2022/09/02 03:17:51;;;;;;;0.93;0.20;;;16.60;67.10;;;;;;6022483;23;20014;-78
2022/09/02 03:20:22;;;;;;;0.50;0.20;;;16.60;67.10;;;;;;6105011;23;20014;-80
2022/09/02 03:22:55;;;;;;;1.33;0.30;;;16.60;67.20;;;;;;6047501;23;20013;-81
2022/09/02 03:25:22;;;;;;;0.38;0.20;;;16.60;67.30;;;;;;6094624;23;20015;-80
2022/09/02 03:27:49;;;;;;;0.70;0.30;;;16.60;67.30;;;;;;6022369;23;20011;-80
2022/09/02 03:30:26;;;;;;;1.48;0.20;;;16.50;67.20;;;;;;6094815;23;20017;-80
2022/09/02 03:32:54;;;;;;;3.70;0.30;;;16.50;67.30;;;;;;6104142;23;20035;-80
2022/09/02 03:35:22;;;;;;;0.80;0.40;;;16.50;67.40;;;;;;6068276;23;20010;-80
2022/09/02 03:37:50;;;;;;;1.60;0.28;;;16.50;67.50;;;;;;6068276;23;20014;-80
2022/09/02 03:40:22;;;;;;;0.88;0.30;;;16.50;67.50;;;;;;6068238;23;20007;-79
2022/09/02 03:42:52;;;;;;;1.33;0.30;;;16.50;67.60;;;;;;6043793;23;20017;-80
2022/09/02 03:45:19;;;;;;;0.90;0.20;;;16.50;67.60;;;;;;6043965;23;20013;-80
2022/09/02 03:47:52;;;;;;;0.60;0.20;;;16.50;67.60;;;;;;6091134;23;20010;-79
2022/09/02 03:50:25;;;;;;;0.52;0.20;;;16.50;67.70;;;;;;6044078;23;20021;-80
2022/09/02 03:52:53;;;;;;;0.85;0.22;;;16.50;67.80;;;;;;6067971;23;20014;-79
2022/09/02 03:55:21;;;;;;;2.17;0.30;;;16.50;67.80;;;;;;6041687;23;20346;-80
2022/09/02 03:57:47;;;;;;;1.55;0.20;;;16.40;67.80;;;;;;6043011;23;20021;-79
2022/09/02 04:00:16;;;;;;;3.00;0.20;;;16.40;67.90;;;;;;6019380;23;20007;-79
2022/09/02 04:02:46;;;;;;;0.93;0.20;;;16.40;67.90;;;;;;6100905;23;19999;-80
2022/09/02 04:05:12;;;;;;;0.30;0.20;;;16.40;67.90;;;;;;6045395;23;20014;-79
2022/09/02 04:07:41;;;;;;;0.57;0.20;;;16.40;68.00;;;;;;6046144;23;20007;-81
2022/09/02 04:10:08;;;;;;;1.08;0.30;;;16.40;68.00;;;;;;6045756;23;20021;-80
2022/09/02 04:12:38;;;;;;;1.17;0.13;;;16.30;68.00;;;;;;6069016;23;20014;-80
2022/09/02 04:15:08;;;;;;;0.30;0.20;;;16.30;68.10;;;;;;6068609;23;20011;-80
2022/09/02 07:21:50;;;;;;;4.40;0.57;;;19.40;65.30;;;;;;6080964;23;20332;-82
2022/09/02 07:30:38;;;;;;;;;;;;;;;;;;;;;
2022/09/02 08:27:28;;;;;;;2.58;0.35;;;22.90;59.80;;;;;;6046742;23;20038;-83
2022/09/02 08:31:48;;;;;;;1.52;0.40;;;23.00;59.90;;;;;;6071414;23;20031;-83
2022/09/02 08:39:36;;;;;;;1.00;0.30;;;23.30;59.10;;;;;;6047755;23;20341;-83
2022/09/02 08:46:59;;;;;;;;;;;;;;;;;;;;;
2022/09/02 09:16:02;;;;;;;0.95;0.30;;;23.70;58.90;;;;;;6096923;23;20026;-82
2022/09/02 09:20:07;;;;;;;;;;;;;;;;;;;;;
2022/09/02 09:24:06;;;;;;;;;;;;;;;;;;;;;
2022/09/02 09:31:11;;;;;;;1.83;0.50;;;23.90;58.80;;;;;;6098321;23;20474;-81
2022/09/02 09:39:47;;;;;;;;;;;;;;;;;;;;;
2022/09/02 09:56:50;;;;;;;6.35;0.50;;;24.70;57.70;;;;;;5976726;23;20004;-82
2022/09/02 10:00:07;;;;;;;1.27;0.40;;;24.90;57.50;;;;;;5988049;24;20016;-82
2022/09/02 10:04:17;;;;;;;;;;;;;;;;;;;;;
2022/09/02 10:08:02;;;;;;;;;;;;;;;;;;;;;
2022/09/02 10:15:50;;;;;;;1.48;0.50;;;25.90;55.50;;;;;;6069146;23;20025;-82
2022/09/02 10:19:48;;;;;;;2.88;0.50;;;26.00;56.00;;;;;;6070357;23;20176;-80
2022/09/02 10:23:16;;;;;;;2.05;0.70;;;26.40;55.90;;;;;;6068085;23;20369;-80
2022/09/02 10:31:12;;;;;;;6.03;0.80;;;26.70;54.70;;;;;;6065211;23;20019;-80
2022/09/02 10:35:27;;;;;;;2.88;1.10;;;26.90;54.80;;;;;;6069981;23;20022;-81
2022/09/02 10:39:53;;;;;;;5.15;1.08;;;27.50;55.00;;;;;;6071778;23;20018;-82
2022/09/02 10:47:34;;;;;;;2.53;0.75;;;27.80;53.60;;;;;;6067457;23;20018;-81
2022/09/02 10:51:08;;;;;;;3.55;0.52;;;27.90;53.20;;;;;;6091799;23;20022;-80
2022/09/02 10:54:43;;;;;;;4.93;1.08;;;28.30;53.80;;;;;;6057255;23;20419;-82
2022/09/02 11:02:50;;;;;;;1.65;0.80;;;28.90;52.20;;;;;;6037436;23;20019;-80
2022/09/02 11:05:34;;;;;;;3.95;1.00;;;29.40;52.00;;;;;;6069507;23;20017;-79
2022/09/02 11:08:42;;;;;;;2.40;1.00;;;29.60;51.80;;;;;;6044394;23;20007;-80
2022/09/02 11:11:41;;;;;;;1.88;0.90;;;29.80;51.80;;;;;;6028619;23;20007;-79
2022/09/02 11:14:14;;;;;;;7.35;4.35;;;30.20;51.10;;;;;;6042865;23;20010;-78
2022/09/02 11:17:27;;;;;;;3.83;0.90;;;30.60;50.70;;;;;;6025830;23;20027;-79
2022/09/02 11:20:29;;;;;;;1.55;0.70;;;30.80;49.00;;;;;;6021684;23;20447;-79
2022/09/02 11:23:26;;;;;;;3.28;0.68;;;30.90;49.60;;;;;;6043020;23;20485;-79
2022/09/02 11:26:37;;;;;;;1.60;0.57;;;31.10;48.50;;;;;;6053973;23;20038;-78
2022/09/02 11:34:40;;;;;;;2.22;0.52;;;31.20;48.90;;;;;;6063718;23;20021;-80
2022/09/02 11:38:02;;;;;;;1.38;0.65;;;31.20;48.80;;;;;;6045994;23;20019;-80
2022/09/02 11:41:28;;;;;;;1.58;0.40;;;31.30;48.30;;;;;;6066243;23;20011;-81
2022/09/02 11:49:29;;;;;;;1.23;0.40;;;31.10;47.50;;;;;;6020292;23;20022;-81
2022/09/02 11:56:11;;;;;;;0.90;0.43;;;32.10;45.90;;;;;;6001217;23;20026;-80
2022/09/02 11:58:51;;;;;;;1.63;0.40;;;32.40;45.40;;;;;;6041838;23;20011;-78
2022/09/02 12:05:42;;;;;;;2.25;0.77;;;32.70;44.30;;;;;;6044351;23;20014;-79
2022/09/02 12:09:11;;;;;;;;;;;;;;;;;;;;;
2022/09/02 12:12:50;;;;;;;2.88;0.50;;;33.10;43.00;;;;;;6070619;23;20003;-79
2022/09/02 12:16:10;;;;;;;2.58;1.55;;;32.20;43.30;;;;;;6025143;23;20011;-79
2022/09/02 12:19:10;;;;;;;1.65;0.88;;;32.20;44.00;;;;;;6044028;23;20347;-78
2022/09/02 12:22:16;;;;;;;1.63;0.60;;;33.10;43.40;;;;;;6038992;23;20003;-79
2022/09/02 12:25:02;;;;;;;3.80;0.40;;;33.90;43.20;;;;;;6066960;23;20007;-79
2022/09/02 12:27:41;;;;;;;0.70;0.40;;;34.60;41.70;;;;;;6067955;23;20010;-78
2022/09/02 12:30:51;;;;;;;1.00;0.40;;;35.00;41.00;;;;;;6044170;23;20006;-78
2022/09/02 12:34:04;;;;;;;3.20;0.40;;;35.00;40.70;;;;;;6044835;23;20014;-80
2022/09/02 12:40:16;;;;;;;2.58;0.47;;;34.80;40.50;;;;;;6042684;23;20007;-79
2022/09/02 12:44:14;;;;;;;1.42;0.40;;;35.00;40.30;;;;;;6064890;23;20312;-79
2022/09/02 12:47:31;;;;;;;1.35;0.50;;;35.90;39.40;;;;;;5966376;23;20144;-80
2022/09/02 12:50:54;;;;;;;4.25;1.85;;;35.90;38.80;;;;;;6060166;23;20034;-80
2022/09/02 12:54:23;;;;;;;;;;;;;;;;;;;;;
2022/09/02 13:06:08;;;;;;;5.30;1.45;;;37.80;36.00;;;;;;5979887;23;20443;-77
2022/09/02 13:09:38;;;;;;;1.40;0.60;;;37.80;36.30;;;;;;6035674;23;20000;-79
2022/09/02 13:12:58;;;;;;;5.28;4.15;;;36.50;37.10;;;;;;6013134;23;20008;-80
2022/09/02 13:16:22;;;;;;;6.60;5.90;;;37.20;37.30;;;;;;6013247;23;20021;-81
2022/09/02 13:19:53;;;;;;;3.20;0.70;;;38.10;36.60;;;;;;6013645;23;20019;-80
2022/09/02 13:30:48;;;;;;;1.80;0.60;;;38.30;35.80;;;;;;6015927;23;20026;-81
2022/09/02 13:38:06;;;;;;;1.80;0.80;;;34.50;39.10;;;;;;6036768;23;20015;-80
2022/09/02 13:41:32;;;;;;;1.20;0.60;;;33.20;40.30;;;;;;6048207;23;20021;-80
2022/09/02 13:44:44;;;;;;;1.58;0.45;;;32.10;40.80;;;;;;6014216;23;20117;-80
2022/09/02 13:48:22;;;;;;;1.58;0.47;;;31.30;41.50;;;;;;6003501;23;20015;-80
2022/09/02 13:51:34;;;;;;;2.00;0.60;;;30.70;42.00;;;;;;6012397;23;20463;-79
2022/09/02 13:55:10;;;;;;;;;;;;;;;;;;;;;
2022/09/02 13:58:29;;;;;;;4.43;0.60;;;31.70;41.90;;;;;;6013163;23;20026;-83
2022/09/02 14:01:26;;;;;;;2.70;0.50;;;32.90;40.20;;;;;;6036810;23;20007;-80
2022/09/02 14:04:34;;;;;;;2.22;0.50;;;32.60;40.20;;;;;;6029955;23;20061;-80
2022/09/02 14:08:16;;;;;;;1.20;0.60;;;32.50;39.90;;;;;;6024096;23;20352;-80
2022/09/02 14:15:27;;;;;;;1.45;0.50;;;31.10;41.80;;;;;;5976131;23;20271;-80
2022/09/02 14:18:24;;;;;;;2.25;0.40;;;30.50;42.30;;;;;;6015588;23;20015;-81
2022/09/02 14:21:49;;;;;;;1.17;0.52;;;30.20;42.60;;;;;;5993321;23;20440;-79
2022/09/02 14:24:53;;;;;;;2.58;0.45;;;30.70;42.20;;;;;;5978275;23;20007;-79
2022/09/02 14:28:13;;;;;;;1.70;0.50;;;31.20;41.70;;;;;;6015884;23;20348;-79
2022/09/02 14:31:42;;;;;;;;;;;;;;;;;;;;;
2022/09/02 14:35:16;;;;;;;0.93;0.40;;;30.20;42.60;;;;;;6031472;23;20352;-79
2022/09/02 14:37:59;;;;;;;1.42;0.50;;;29.90;43.10;;;;;;5988140;23;20015;-78
2022/09/02 14:41:23;;;;;;;2.35;0.45;;;29.70;43.40;;;;;;6015324;23;20452;-78
2022/09/02 14:45:09;;;;;;;;;;;;;;;;;;;;;
2022/09/02 14:47:47;;;;;;;2.80;0.60;;;29.80;43.60;;;;;;6039223;23;20008;-79
2022/09/02 14:50:45;;;;;;;1.38;0.70;;;29.80;42.90;;;;;;5992615;23;20004;-79
2022/09/02 14:53:38;;;;;;;4.45;2.53;;;29.70;42.90;;;;;;5991014;23;20018;-81
2022/09/02 14:56:12;;;;;;;1.20;0.68;;;29.60;43.40;;;;;;6072471;23;20014;-80
2022/09/02 14:58:56;;;;;;;2.72;0.50;;;29.60;43.00;;;;;;6072571;23;20006;-82
2022/09/02 15:02:20;;;;;;;3.13;1.40;;;29.40;42.60;;;;;;6067561;23;20006;-83
2022/09/02 15:05:02;;;;;;;5.00;1.60;;;29.20;43.10;;;;;;6051362;23;20026;-82
2022/09/02 15:07:47;;;;;;;3.33;0.85;;;29.10;43.50;;;;;;6048878;23;20366;-83
2022/09/02 15:10:20;;;;;;;3.83;0.60;;;29.10;43.80;;;;;;6073929;23;20451;-81
2022/09/02 15:13:16;;;;;;;1.95;0.50;;;29.00;43.70;;;;;;6074278;23;20017;-81
2022/09/02 15:15:58;;;;;;;1.63;0.40;;;28.90;43.60;;;;;;6047886;23;20013;-80
2022/09/02 15:18:40;;;;;;;1.88;0.60;;;28.70;43.70;;;;;;6071458;23;20019;-81
2022/09/02 15:21:16;;;;;;;2.60;0.50;;;28.60;43.70;;;;;;6047873;23;20011;-82
2022/09/02 15:29:02;;;;;;;1.42;0.50;;;28.40;44.40;;;;;;6042638;23;20011;-80
2022/09/02 15:37:07;;;;;;;1.38;0.68;;;28.00;44.60;;;;;;6083897;23;20453;-80
2022/09/02 15:39:51;;;;;;;2.08;0.55;;;27.80;44.30;;;;;;6046129;23;20015;-80
2022/09/02 15:42:24;;;;;;;1.27;0.60;;;27.70;44.60;;;;;;6046687;23;20014;-78
2022/09/02 15:44:54;;;;;;;0.77;0.40;;;27.60;44.70;;;;;;6040547;23;20007;-78
2022/09/02 15:47:21;;;;;;;2.47;0.60;;;27.50;44.60;;;;;;6039763;23;20011;-78
2022/09/02 15:49:54;;;;;;;1.35;0.50;;;27.50;45.00;;;;;;6067067;23;20010;-79
2022/09/02 15:52:46;;;;;;;0.73;0.40;;;27.50;44.90;;;;;;6047039;23;20007;-80
2022/09/02 15:55:20;;;;;;;1.60;0.50;;;27.50;44.20;;;;;;6047194;23;20029;-80
2022/09/02 15:58:01;;;;;;;1.30;0.70;;;27.40;44.10;;;;;;6022487;23;20007;-81
2022/09/02 16:00:57;;;;;;;1.23;0.43;;;27.30;44.00;;;;;;6048011;23;20014;-79
2022/09/02 16:03:32;;;;;;;1.23;0.45;;;27.20;44.00;;;;;;6078087;23;20007;-79
2022/09/02 16:06:06;;;;;;;3.90;2.13;;;27.10;44.20;;;;;;6065903;23;20312;-79
2022/09/02 16:08:41;;;;;;;1.75;0.55;;;27.10;44.60;;;;;;6047379;23;20017;-80
2022/09/02 16:11:10;;;;;;;0.95;0.50;;;27.10;44.50;;;;;;6048585;23;20036;-80
2022/09/02 16:13:40;;;;;;;1.63;0.50;;;26.90;44.40;;;;;;6047317;23;20037;-80
2022/09/02 16:16:24;;;;;;;2.05;0.57;;;26.80;44.80;;;;;;6069835;23;20006;-80
2022/09/02 16:24:21;;;;;;;1.75;0.50;;;26.60;45.10;;;;;;6077860;23;20014;-84
2022/09/02 16:32:55;;;;;;;;;;;;;;;;;;;;;
2022/09/02 16:41:15;;;;;;;;;;;;;;;;;;;;;
2022/09/02 16:54:59;;;;;;;;;;;;;;;;;;;;;
2022/09/02 17:12:46;;;;;;;;;;;;;;;;;;;;;
2022/09/02 17:17:17;;;;;;;;;;;;;;;;;;;;;
2022/09/02 17:55:22;;;;;;;;;;;;;;;;;;;;;
2022/09/02 18:00:00;;;;;;;;;;;;;;;;;;;;;
2022/09/02 18:04:17;;;;;;;2.25;0.40;;;23.70;50.10;;;;;;5762809;24;20031;-84
2022/09/02 18:42:42;;;;;;;;;;;;;;;;;;;;;
2022/09/02 20:00:26;;;;;;;;;;;;;;;;;;;;;
2022/09/02 20:18:55;;;;;;;;;;;;;;;;;;;;;
2022/09/02 21:11:03;;;;;;;1.58;0.57;;;19.90;58.00;;;;;;6079503;23;20014;-83
2022/09/02 21:40:25;;;;;;;3.67;0.70;;;19.40;59.60;;;;;;5957504;24;20050;-84
2022/09/02 21:43:40;;;;;;;3.00;0.55;;;19.30;59.60;;;;;;6084549;23;20486;-82
2022/09/02 22:19:56;;;;;;;0.80;0.40;;;18.80;60.90;;;;;;6044404;23;20021;-78
2022/09/02 22:22:31;;;;;;;1.65;0.30;;;18.70;60.90;;;;;;6053087;23;20009;-81
2022/09/02 22:25:06;;;;;;;2.17;0.40;;;18.70;61.10;;;;;;6051627;23;20010;-81
2022/09/02 22:30:32;;;;;;;2.05;0.40;;;18.70;61.50;;;;;;6044365;23;20010;-79
2022/09/02 22:33:22;;;;;;;5.03;0.35;;;18.60;61.60;;;;;;6046145;23;20006;-79
2022/09/02 22:36:18;;;;;;;1.25;0.40;;;18.60;61.90;;;;;;6062255;23;20014;-79
2022/09/02 22:39:00;;;;;;;1.23;0.40;;;18.60;62.60;;;;;;6061310;23;20300;-80
2022/09/02 22:41:36;;;;;;;1.50;0.40;;;18.50;62.10;;;;;;6070571;23;19999;-79
2022/09/02 22:54:44;;;;;;;1.33;0.40;;;18.40;62.30;;;;;;6068384;23;20007;-81
2022/09/02 22:57:51;;;;;;;1.85;0.30;;;18.40;62.30;;;;;;6053999;23;20022;-79
2022/09/02 23:00:29;;;;;;;1.40;0.30;;;18.30;62.40;;;;;;6053319;23;20022;-79
2022/09/02 23:03:52;;;;;;;0.50;0.20;;;18.30;62.50;;;;;;6101230;23;20006;-79
2022/09/02 23:06:43;;;;;;;2.08;0.50;;;18.30;62.70;;;;;;6045953;23;20010;-78
2022/09/02 23:09:39;;;;;;;1.23;0.33;;;18.20;63.20;;;;;;6024960;23;20098;-80
2022/09/02 23:15:46;;;;;;;2.75;0.40;;;18.20;63.00;;;;;;6069408;23;20006;-79
2022/09/02 23:18:50;;;;;;;0.63;0.30;;;18.10;63.10;;;;;;6065371;23;20017;-79
2022/09/02 23:22:11;;;;;;;3.33;0.40;;;18.10;63.30;;;;;;6062704;23;20125;-82
2022/09/02 23:25:12;;;;;;;2.80;0.68;;;18.10;63.40;;;;;;6058373;23;20030;-80
2022/09/02 23:28:20;;;;;;;1.00;0.30;;;18.00;63.50;;;;;;6017467;23;20403;-80
2022/09/02 23:31:49;;;;;;;2.83;0.43;;;18.00;63.50;;;;;;6045870;23;20054;-78
2022/09/02 23:34:46;;;;;;;2.58;0.50;;;18.00;63.90;;;;;;6044159;23;20018;-77
2022/09/02 23:42:07;;;;;;;1.05;0.50;;;18.00;63.90;;;;;;6093252;23;20025;-78
2022/09/02 23:44:59;;;;;;;1.33;0.40;;;17.90;63.80;;;;;;6064740;23;20002;-78
2022/09/02 23:48:06;;;;;;;1.23;0.40;;;17.90;64.00;;;;;;6066208;23;20021;-77
2022/09/02 23:52:07;;;;;;;0.95;0.40;;;17.90;64.40;;;;;;6047345;23;20018;-79
2022/09/02 23:59:51;;;;;;;1.05;0.40;;;17.80;64.40;;;;;;6037228;23;20019;-79
